Time;durP1;ratioP1;P1;durP2;ratioP2;P2;SDS_P1;SDS_P2;PMS_P1;PMS_P2;Temp;Humidity;BMP_temperature;BMP_pressure;BME280_temperature;BME280_humidity;BME280_pressure;Samples;Min_cycle;Max_cycle;Signal;HPM_P1;HPM_P2
2021/01/31 00:01:00;;;;;;;7.60;5.20;;;4.90;99.90;;;;;;5046184;28;20626;-83
2021/01/31 00:03:29;;;;;;;9.55;5.97;;;4.90;99.90;;;;;;5038598;28;20594;-82
2021/01/31 00:05:57;;;;;;;7.80;5.30;;;4.70;99.90;;;;;;5046570;28;20297;-83
2021/01/31 00:08:25;;;;;;;9.40;6.22;;;4.80;99.90;;;;;;5059035;28;20269;-82
2021/01/31 00:10:53;;;;;;;10.05;4.90;;;4.90;99.90;;;;;;5064316;28;20308;-83
2021/01/31 00:13:21;;;;;;;8.45;5.65;;;5.00;99.90;;;;;;5077611;28;20202;-82
2021/01/31 00:15:50;;;;;;;8.88;5.60;;;4.60;99.90;;;;;;5059678;28;20203;-82
2021/01/31 00:18:18;;;;;;;10.15;7.10;;;4.80;99.90;;;;;;5057435;28;20210;-82
2021/01/31 00:20:46;;;;;;;7.90;5.03;;;4.90;99.90;;;;;;5058451;28;20233;-83
2021/01/31 00:23:14;;;;;;;10.13;7.60;;;4.90;99.90;;;;;;5057961;28;20589;-82
2021/01/31 00:25:40;;;;;;;5.75;4.28;;;4.80;99.90;;;;;;5059895;28;20206;-82
2021/01/31 00:28:08;;;;;;;9.10;6.28;;;4.90;99.90;;;;;;5056436;28;20214;-80
2021/01/31 00:30:36;;;;;;;11.77;7.78;;;4.90;99.90;;;;;;5049321;28;20230;-81
2021/01/31 00:33:04;;;;;;;12.95;8.07;;;4.70;99.90;;;;;;5077566;28;20198;-82
2021/01/31 00:35:33;;;;;;;11.18;7.18;;;4.80;99.90;;;;;;5072507;28;20287;-82
2021/01/31 00:38:00;;;;;;;6.93;4.53;;;4.90;99.90;;;;;;5058239;28;20293;-82
2021/01/31 00:40:26;;;;;;;9.85;6.85;;;4.90;99.90;;;;;;5057536;28;20364;-82
2021/01/31 00:42:53;;;;;;;11.35;7.32;;;4.80;99.90;;;;;;5056547;28;20851;-81
2021/01/31 00:45:23;;;;;;;11.80;7.60;;;4.90;99.90;;;;;;5056503;28;20234;-83
2021/01/31 00:47:49;;;;;;;11.48;6.78;;;4.70;99.90;;;;;;5056919;28;20226;-83
2021/01/31 00:50:17;;;;;;;8.15;5.63;;;4.60;99.90;;;;;;5057835;28;20230;-82
2021/01/31 00:52:43;;;;;;;10.45;6.30;;;4.70;99.90;;;;;;5061259;28;20245;-82
2021/01/31 00:55:11;;;;;;;10.50;7.22;;;4.80;99.90;;;;;;5056924;28;20202;-82
2021/01/31 00:57:37;;;;;;;11.38;7.70;;;4.70;99.90;;;;;;5057337;28;20207;-83
2021/01/31 01:00:12;;;;;;;11.10;9.23;;;4.70;99.90;;;;;;5061380;28;20234;-83
2021/01/31 01:02:39;;;;;;;10.15;6.72;;;4.70;99.90;;;;;;5051104;28;20205;-82
2021/01/31 01:05:07;;;;;;;10.75;6.90;;;4.90;99.90;;;;;;5061904;28;20231;-82
2021/01/31 01:07:33;;;;;;;9.45;4.50;;;4.80;99.90;;;;;;5091958;28;20232;-81
2021/01/31 01:10:00;;;;;;;8.85;5.25;;;4.70;99.90;;;;;;5092318;28;20226;-80
2021/01/31 01:12:26;;;;;;;11.85;7.57;;;4.70;99.90;;;;;;5090797;28;20229;-81
2021/01/31 01:14:52;;;;;;;12.18;7.45;;;4.80;99.90;;;;;;5093600;28;20186;-81
2021/01/31 01:17:19;;;;;;;12.48;7.40;;;4.90;99.90;;;;;;5093985;28;20259;-83
2021/01/31 01:19:46;;;;;;;10.93;7.78;;;4.90;99.90;;;;;;5077537;28;20249;-82
2021/01/31 01:22:12;;;;;;;13.15;8.38;;;4.80;99.90;;;;;;5096256;28;20189;-82
2021/01/31 01:24:39;;;;;;;11.07;7.50;;;4.90;99.90;;;;;;5099337;28;20217;-82
2021/01/31 01:27:05;;;;;;;11.75;7.68;;;4.80;99.90;;;;;;5098455;28;20204;-81
2021/01/31 01:29:31;;;;;;;13.13;8.60;;;4.80;99.90;;;;;;5083845;28;20237;-80
2021/01/31 01:31:58;;;;;;;12.23;8.65;;;4.90;99.90;;;;;;5057986;28;20302;-82
2021/01/31 01:34:24;;;;;;;12.10;7.80;;;4.90;99.90;;;;;;5049997;28;20301;-82
2021/01/31 01:36:51;;;;;;;13.57;8.73;;;4.70;99.90;;;;;;5057112;28;20222;-82
2021/01/31 01:39:18;;;;;;;12.55;8.75;;;4.70;99.90;;;;;;5068770;28;20233;-83
2021/01/31 01:41:45;;;;;;;10.82;6.57;;;4.80;99.90;;;;;;5061929;28;20214;-82
2021/01/31 01:44:12;;;;;;;13.43;8.35;;;4.90;99.90;;;;;;5062501;28;20575;-80
2021/01/31 01:46:43;;;;;;;13.48;9.07;;;4.80;99.90;;;;;;5066543;28;20267;-81
2021/01/31 01:49:19;;;;;;;8.98;6.63;;;4.80;99.90;;;;;;5065712;28;20230;-80
2021/01/31 01:51:50;;;;;;;16.55;8.48;;;4.90;99.90;;;;;;5057982;28;20194;-81
2021/01/31 01:54:22;;;;;;;11.65;8.18;;;5.00;99.90;;;;;;5057605;28;20191;-81
2021/01/31 01:56:54;;;;;;;9.18;7.03;;;4.80;99.90;;;;;;5052737;28;20237;-80
2021/01/31 01:59:21;;;;;;;9.68;6.68;;;4.80;99.90;;;;;;5054038;28;20222;-80
2021/01/31 02:02:01;;;;;;;15.30;9.55;;;4.80;99.90;;;;;;5056779;28;20230;-80
2021/01/31 02:04:29;;;;;;;10.63;8.05;;;4.80;99.90;;;;;;5049063;28;20230;-80
2021/01/31 02:06:55;;;;;;;8.88;6.38;;;5.00;99.90;;;;;;5069386;28;20213;-82
2021/01/31 02:09:23;;;;;;;10.00;7.22;;;5.00;99.90;;;;;;5075632;28;20226;-80
2021/01/31 02:11:52;;;;;;;9.77;7.00;;;4.70;99.90;;;;;;5073331;28;20233;-80
2021/01/31 02:14:19;;;;;;;9.48;6.22;;;5.00;99.90;;;;;;5083443;28;20199;-82
2021/01/31 02:16:53;;;;;;;9.95;7.72;;;4.90;99.90;;;;;;5097529;28;20257;-81
2021/01/31 02:19:48;;;;;;;10.60;8.00;;;4.80;99.90;;;;;;5090444;28;20224;-82
2021/01/31 02:23:02;;;;;;;9.65;6.70;;;4.90;99.90;;;;;;5010681;28;20557;-82
2021/01/31 02:25:58;;;;;;;8.73;6.68;;;4.60;99.90;;;;;;5042850;28;20225;-82
2021/01/31 02:28:55;;;;;;;10.27;7.18;;;4.90;99.90;;;;;;5043212;28;20233;-81
2021/01/31 02:31:39;;;;;;;13.75;8.13;;;4.70;99.90;;;;;;5050766;28;20210;-81
2021/01/31 02:34:10;;;;;;;9.10;5.47;;;4.70;99.90;;;;;;5056703;28;20242;-83
2021/01/31 02:36:43;;;;;;;11.25;8.40;;;4.80;99.90;;;;;;5056371;28;20203;-82
2021/01/31 02:39:24;;;;;;;9.10;6.22;;;4.90;99.90;;;;;;5054679;28;20233;-84
2021/01/31 02:42:02;;;;;;;10.88;7.47;;;4.70;99.90;;;;;;5055746;28;20218;-83
2021/01/31 02:44:30;;;;;;;11.20;7.70;;;4.60;99.90;;;;;;5036614;28;20253;-83
2021/01/31 02:47:00;;;;;;;9.60;6.82;;;4.50;99.90;;;;;;5050253;28;20198;-84
2021/01/31 02:49:30;;;;;;;9.40;7.20;;;4.70;99.90;;;;;;5070960;28;20214;-84
2021/01/31 02:52:07;;;;;;;9.40;6.53;;;4.60;99.90;;;;;;5056641;28;20207;-84
2021/01/31 02:54:40;;;;;;;9.25;6.55;;;4.50;99.90;;;;;;5056050;28;20187;-84
2021/01/31 02:57:09;;;;;;;10.68;7.78;;;4.70;99.90;;;;;;5055049;28;20279;-83
2021/01/31 02:59:42;;;;;;;13.40;9.57;;;4.70;99.90;;;;;;5039245;28;20310;-84
2021/01/31 03:02:15;;;;;;;12.10;7.95;;;4.50;99.90;;;;;;5036881;28;20191;-84
2021/01/31 03:04:49;;;;;;;9.75;8.15;;;4.70;99.90;;;;;;5068486;28;20256;-83
2021/01/31 03:07:21;;;;;;;9.43;6.82;;;4.50;99.90;;;;;;5052471;28;20404;-84
2021/01/31 03:09:52;;;;;;;16.50;8.50;;;4.80;99.90;;;;;;5056235;28;20273;-84
2021/01/31 03:12:22;;;;;;;8.65;5.60;;;4.70;99.90;;;;;;5071406;28;20227;-84
2021/01/31 03:14:56;;;;;;;10.02;7.50;;;4.90;99.90;;;;;;5074470;28;20625;-84
2021/01/31 03:17:28;;;;;;;12.48;8.57;;;4.80;99.90;;;;;;5056839;28;20206;-84
2021/01/31 03:20:02;;;;;;;12.35;8.70;;;4.90;99.90;;;;;;5053974;28;20254;-84
2021/01/31 03:22:36;;;;;;;11.88;8.93;;;4.60;99.90;;;;;;5056306;28;20217;-84
2021/01/31 03:25:08;;;;;;;11.98;7.88;;;4.70;99.90;;;;;;5055381;28;20233;-85
2021/01/31 03:27:38;;;;;;;13.05;9.00;;;4.70;99.90;;;;;;5054487;28;20274;-83
2021/01/31 03:30:06;;;;;;;10.90;7.25;;;4.90;99.90;;;;;;5056530;28;20230;-84
2021/01/31 03:32:36;;;;;;;11.75;8.68;;;4.80;99.90;;;;;;5052013;28;20289;-83
2021/01/31 03:35:10;;;;;;;12.27;8.65;;;4.70;99.90;;;;;;5037127;28;20986;-83
2021/01/31 03:37:49;;;;;;;12.32;7.78;;;4.70;99.90;;;;;;5053538;28;20566;-84
2021/01/31 03:40:17;;;;;;;13.82;9.23;;;4.70;99.90;;;;;;5053726;28;20245;-84
2021/01/31 03:42:44;;;;;;;14.70;9.20;;;4.60;99.90;;;;;;5077277;23;20265;-79
2021/01/31 03:45:13;;;;;;;15.55;10.35;;;4.40;99.90;;;;;;5056005;28;20696;-79
2021/01/31 03:47:45;;;;;;;14.32;9.40;;;4.50;99.90;;;;;;5072663;28;20209;-79
2021/01/31 03:50:13;;;;;;;14.35;9.77;;;4.60;99.90;;;;;;5073529;28;20205;-79
2021/01/31 03:52:39;;;;;;;12.00;8.00;;;4.50;99.90;;;;;;5036391;28;20284;-79
2021/01/31 03:55:07;;;;;;;14.57;9.95;;;4.50;99.90;;;;;;5032772;28;20207;-80
2021/01/31 03:57:40;;;;;;;13.60;9.65;;;4.60;99.90;;;;;;5033123;28;20266;-80
2021/01/31 04:00:11;;;;;;;12.52;8.80;;;4.50;99.90;;;;;;5031772;28;20625;-80
2021/01/31 04:02:41;;;;;;;13.18;8.90;;;4.70;99.90;;;;;;5032900;28;20261;-78
2021/01/31 04:05:10;;;;;;;9.02;5.65;;;4.80;99.90;;;;;;5033517;28;20333;-79
2021/01/31 04:07:40;;;;;;;13.77;6.35;;;4.70;99.90;;;;;;5032554;28;20208;-79
2021/01/31 04:10:08;;;;;;;12.20;8.73;;;4.50;99.90;;;;;;5018058;28;20224;-79
2021/01/31 04:12:38;;;;;;;9.48;6.97;;;4.70;99.90;;;;;;5015560;28;20311;-80
2021/01/31 04:15:15;;;;;;;12.13;8.23;;;4.50;99.90;;;;;;5013279;28;20271;-80
2021/01/31 04:17:43;;;;;;;13.02;9.27;;;4.60;99.90;;;;;;5032721;28;20211;-80
2021/01/31 04:20:10;;;;;;;10.25;6.82;;;4.40;99.90;;;;;;5033702;28;20235;-80
2021/01/31 04:22:38;;;;;;;12.65;8.38;;;4.60;99.90;;;;;;5032753;28;20234;-80
2021/01/31 04:25:05;;;;;;;12.45;7.20;;;4.60;99.90;;;;;;5033097;28;20223;-79
2021/01/31 04:27:32;;;;;;;13.85;8.90;;;4.50;99.90;;;;;;5036364;28;20293;-79
2021/01/31 04:29:58;;;;;;;15.23;9.07;;;4.30;99.90;;;;;;5036160;28;20280;-79
2021/01/31 04:32:24;;;;;;;7.53;4.53;;;4.40;99.90;;;;;;5037699;28;20379;-79
2021/01/31 04:34:50;;;;;;;9.70;6.35;;;4.50;99.90;;;;;;5035500;28;20833;-80
2021/01/31 04:37:20;;;;;;;5.90;3.97;;;4.40;99.90;;;;;;5036890;28;20207;-79
2021/01/31 04:39:47;;;;;;;15.75;9.25;;;4.50;99.90;;;;;;5034519;28;20218;-79
2021/01/31 04:42:16;;;;;;;8.88;5.75;;;4.30;99.90;;;;;;5033884;28;20227;-80
2021/01/31 04:44:42;;;;;;;12.95;9.00;;;4.40;99.90;;;;;;5033580;28;21016;-81
2021/01/31 04:47:14;;;;;;;11.82;9.38;;;4.50;99.90;;;;;;5034048;28;20271;-80
2021/01/31 04:49:57;;;;;;;14.05;8.25;;;4.30;99.90;;;;;;5034911;28;20211;-80
2021/01/31 04:52:45;;;;;;;12.73;7.18;;;4.40;99.90;;;;;;5036504;28;20784;-80
2021/01/31 04:55:33;;;;;;;9.60;6.40;;;4.20;99.90;;;;;;5017833;28;20219;-80
2021/01/31 04:58:10;;;;;;;10.80;7.93;;;4.40;99.90;;;;;;5028373;28;20207;-80
2021/01/31 05:00:48;;;;;;;13.48;9.85;;;4.50;99.90;;;;;;5036933;28;20215;-80
2021/01/31 05:03:15;;;;;;;11.95;8.75;;;4.50;99.90;;;;;;5037041;28;20584;-79
2021/01/31 05:05:49;;;;;;;11.90;8.02;;;4.30;99.90;;;;;;5041252;28;20203;-79
2021/01/31 05:08:19;;;;;;;12.40;8.23;;;4.40;99.90;;;;;;5037837;28;20294;-80
2021/01/31 05:10:49;;;;;;;12.30;8.40;;;4.50;99.90;;;;;;5037178;28;20256;-80
2021/01/31 05:13:28;;;;;;;12.95;8.13;;;4.50;99.90;;;;;;5037258;28;20211;-80
2021/01/31 05:16:02;;;;;;;12.95;8.55;;;4.40;99.90;;;;;;5035547;28;20222;-80
2021/01/31 05:18:29;;;;;;;12.35;9.52;;;4.40;99.90;;;;;;5036447;28;20234;-80
2021/01/31 05:21:01;;;;;;;12.20;8.30;;;4.40;99.90;;;;;;5034672;28;20280;-80
2021/01/31 05:23:31;;;;;;;12.02;7.43;;;4.30;99.90;;;;;;5039517;28;20318;-80
2021/01/31 05:25:58;;;;;;;11.50;8.18;;;4.60;99.90;;;;;;5041224;28;20259;-80
2021/01/31 05:28:27;;;;;;;11.80;8.27;;;4.60;99.90;;;;;;5039102;28;20215;-79
2021/01/31 05:30:53;;;;;;;13.98;9.57;;;4.40;99.90;;;;;;5040874;28;20727;-80
2021/01/31 05:33:22;;;;;;;12.13;8.55;;;4.20;99.90;;;;;;5040835;28;20203;-80
2021/01/31 05:35:50;;;;;;;12.93;8.73;;;4.30;99.90;;;;;;5037480;28;20560;-78
2021/01/31 05:38:35;;;;;;;13.70;10.00;;;4.50;99.90;;;;;;5034718;28;20250;-78
2021/01/31 05:41:24;;;;;;;13.75;8.52;;;4.20;99.90;;;;;;5033296;28;21451;-77
2021/01/31 05:43:56;;;;;;;12.82;7.80;;;4.50;99.90;;;;;;5022173;28;20229;-78
2021/01/31 05:46:25;;;;;;;11.52;7.93;;;4.50;99.90;;;;;;5031186;28;20294;-78
2021/01/31 05:48:51;;;;;;;10.10;6.55;;;4.50;99.90;;;;;;5031723;28;20298;-78
2021/01/31 05:51:19;;;;;;;14.45;8.20;;;4.60;99.90;;;;;;5032177;28;20348;-77
2021/01/31 05:53:46;;;;;;;11.63;7.30;;;4.60;99.90;;;;;;5032252;28;20237;-78
2021/01/31 05:56:18;;;;;;;13.38;8.40;;;4.70;99.90;;;;;;5031363;28;20207;-78
2021/01/31 05:58:44;;;;;;;12.45;8.35;;;4.50;99.90;;;;;;5031743;28;20814;-78
2021/01/31 06:01:13;;;;;;;11.05;7.70;;;4.70;99.90;;;;;;5032489;28;20297;-81
2021/01/31 06:03:40;;;;;;;11.88;8.40;;;4.60;99.90;;;;;;5038333;28;20223;-78
2021/01/31 06:06:14;;;;;;;13.93;8.40;;;4.70;99.90;;;;;;5038401;28;20203;-79
2021/01/31 06:08:43;;;;;;;15.20;8.70;;;4.60;99.90;;;;;;5035679;28;20739;-79
2021/01/31 06:11:20;;;;;;;13.88;9.07;;;4.70;99.90;;;;;;5034994;28;20297;-79
2021/01/31 06:14:00;;;;;;;12.57;8.25;;;4.60;99.90;;;;;;5034498;28;20313;-79
2021/01/31 06:16:26;;;;;;;9.43;5.95;;;4.70;99.90;;;;;;5034879;28;20376;-78
2021/01/31 06:18:59;;;;;;;12.10;8.43;;;4.50;99.90;;;;;;5038597;28;20196;-79
2021/01/31 06:21:37;;;;;;;9.10;6.10;;;4.60;99.90;;;;;;5035712;28;20231;-79
2021/01/31 06:24:04;;;;;;;12.80;8.38;;;4.50;99.90;;;;;;5035834;28;20223;-79
2021/01/31 06:26:39;;;;;;;11.15;7.78;;;4.30;99.90;;;;;;5035188;28;20207;-79
2021/01/31 06:29:10;;;;;;;12.95;7.75;;;4.70;99.90;;;;;;5035471;28;20660;-78
2021/01/31 06:31:43;;;;;;;13.30;7.10;;;4.50;99.90;;;;;;5034482;28;20717;-79
2021/01/31 06:34:10;;;;;;;11.25;7.38;;;4.40;99.90;;;;;;5035199;28;20215;-79
2021/01/31 06:36:51;;;;;;;12.23;8.00;;;4.50;99.90;;;;;;5034100;28;20217;-79
2021/01/31 06:39:35;;;;;;;12.30;8.50;;;4.20;99.90;;;;;;5034298;28;20704;-79
2021/01/31 06:42:13;;;;;;;10.73;8.02;;;4.40;99.90;;;;;;5033969;28;20241;-79
2021/01/31 06:44:54;;;;;;;11.23;8.40;;;4.50;99.90;;;;;;5035830;28;20732;-79
2021/01/31 06:47:43;;;;;;;12.05;7.55;;;4.50;99.90;;;;;;5017715;28;20254;-79
2021/01/31 06:50:15;;;;;;;10.98;8.23;;;4.60;99.90;;;;;;5014715;28;20232;-79
2021/01/31 06:52:53;;;;;;;13.40;8.57;;;4.60;99.90;;;;;;5031450;28;20227;-79
2021/01/31 06:55:45;;;;;;;12.85;7.85;;;4.50;99.90;;;;;;5034149;28;20204;-79
2021/01/31 06:58:40;;;;;;;13.88;8.77;;;4.50;99.90;;;;;;5019190;28;20685;-78
2021/01/31 07:01:30;;;;;;;12.50;8.10;;;4.50;99.90;;;;;;5023578;28;20751;-79
2021/01/31 07:04:26;;;;;;;11.85;8.48;;;4.50;99.90;;;;;;5032848;28;20815;-78
2021/01/31 07:07:37;;;;;;;13.40;9.40;;;4.30;99.90;;;;;;5033452;28;20207;-79
2021/01/31 07:10:23;;;;;;;13.25;8.82;;;4.50;99.90;;;;;;5033817;28;20207;-79
2021/01/31 07:13:02;;;;;;;12.82;8.65;;;4.50;99.90;;;;;;5030803;28;20231;-79
2021/01/31 07:15:36;;;;;;;13.70;5.47;;;4.70;99.90;;;;;;5032802;28;20195;-79
2021/01/31 07:18:08;;;;;;;14.50;9.77;;;4.40;99.90;;;;;;5033343;28;20230;-78
2021/01/31 07:20:39;;;;;;;12.35;9.00;;;4.60;99.90;;;;;;5012564;28;20216;-79
2021/01/31 07:23:11;;;;;;;13.07;9.27;;;4.40;99.90;;;;;;5012784;28;20263;-79
2021/01/31 07:25:40;;;;;;;13.32;8.85;;;4.50;99.90;;;;;;5030417;28;20214;-78
2021/01/31 07:28:10;;;;;;;13.65;9.23;;;4.30;99.90;;;;;;5033325;28;20246;-79
2021/01/31 07:30:39;;;;;;;13.57;8.25;;;4.30;99.90;;;;;;5032127;28;20218;-80
2021/01/31 07:33:10;;;;;;;14.32;10.02;;;4.50;99.90;;;;;;5035473;28;20230;-79
2021/01/31 07:35:45;;;;;;;13.25;9.43;;;4.40;99.90;;;;;;5034612;28;20207;-80
2021/01/31 07:38:18;;;;;;;11.77;8.18;;;4.70;99.90;;;;;;5039440;28;20207;-79
2021/01/31 07:40:46;;;;;;;11.73;7.30;;;4.90;99.90;;;;;;5040484;28;20673;-78
2021/01/31 07:43:16;;;;;;;11.35;7.65;;;4.60;99.90;;;;;;5033208;28;20219;-79
2021/01/31 07:45:44;;;;;;;13.15;8.30;;;4.60;99.90;;;;;;5033273;28;20200;-81
2021/01/31 07:48:33;;;;;;;12.70;9.02;;;4.70;99.90;;;;;;5029805;28;20210;-79
2021/01/31 07:51:01;;;;;;;10.57;7.22;;;4.40;99.90;;;;;;5030171;28;20214;-79
2021/01/31 07:53:31;;;;;;;12.65;8.15;;;4.60;99.90;;;;;;5029762;28;20206;-79
2021/01/31 07:56:17;;;;;;;12.20;8.43;;;4.30;99.90;;;;;;5030644;28;20238;-79
2021/01/31 07:58:45;;;;;;;11.98;7.75;;;4.60;99.90;;;;;;5028875;28;20203;-78
2021/01/31 08:01:34;;;;;;;9.98;6.65;;;4.50;99.90;;;;;;5029920;28;20889;-78
2021/01/31 08:04:20;;;;;;;10.75;7.90;;;4.70;99.90;;;;;;5029929;28;20250;-80
2021/01/31 08:06:48;;;;;;;9.38;5.35;;;4.70;99.90;;;;;;5031302;28;20309;-79
2021/01/31 08:09:55;;;;;;;10.20;6.72;;;4.80;99.90;;;;;;5037633;28;20271;-80
2021/01/31 08:12:58;;;;;;;12.07;8.50;;;4.80;99.90;;;;;;5034921;28;20286;-80
2021/01/31 08:15:40;;;;;;;11.75;7.28;;;4.60;99.90;;;;;;5039309;28;20198;-79
2021/01/31 08:18:16;;;;;;;8.35;5.13;;;4.80;99.90;;;;;;5038943;28;20315;-79
2021/01/31 08:20:51;;;;;;;10.73;8.23;;;4.80;99.90;;;;;;5035138;28;20210;-79
2021/01/31 08:23:45;;;;;;;11.02;7.32;;;4.90;99.90;;;;;;5035316;28;20202;-80
2021/01/31 08:26:12;;;;;;;10.68;7.95;;;4.70;99.90;;;;;;5036850;28;20215;-79
2021/01/31 08:28:54;;;;;;;11.60;8.18;;;4.80;99.90;;;;;;5055790;28;20214;-81
2021/01/31 08:31:20;;;;;;;9.32;6.95;;;4.80;99.90;;;;;;5049778;28;20230;-79
2021/01/31 08:34:00;;;;;;;11.50;7.07;;;5.00;99.90;;;;;;5054122;28;20213;-79
2021/01/31 08:36:29;;;;;;;12.05;8.50;;;4.70;99.90;;;;;;5042075;28;20253;-80
2021/01/31 08:38:57;;;;;;;13.00;8.00;;;4.80;99.90;;;;;;5034282;28;20207;-78
2021/01/31 08:41:40;;;;;;;13.07;8.32;;;4.80;99.90;;;;;;5026785;28;20230;-78
2021/01/31 08:44:39;;;;;;;11.90;9.52;;;5.00;99.90;;;;;;5035324;28;20230;-79
2021/01/31 08:47:06;;;;;;;14.48;9.50;;;4.80;99.90;;;;;;4951527;28;20269;-78
2021/01/31 08:49:33;;;;;;;12.30;8.40;;;4.90;99.90;;;;;;5017823;28;20196;-79
2021/01/31 08:52:01;;;;;;;13.82;9.80;;;5.10;99.90;;;;;;5032448;28;20292;-78
2021/01/31 08:54:28;;;;;;;12.80;8.98;;;5.20;99.90;;;;;;5032655;28;20409;-78
2021/01/31 08:56:57;;;;;;;11.82;8.65;;;5.20;99.90;;;;;;5041251;28;20751;-78
2021/01/31 08:59:27;;;;;;;13.48;10.20;;;4.80;99.90;;;;;;5045205;28;20282;-78
2021/01/31 09:02:16;;;;;;;12.07;8.77;;;4.90;99.90;;;;;;5033993;28;20230;-78
2021/01/31 09:04:46;;;;;;;13.15;8.73;;;4.90;99.90;;;;;;5034232;28;20251;-78
2021/01/31 09:07:20;;;;;;;12.40;9.43;;;5.20;99.90;;;;;;5033040;28;20677;-74
2021/01/31 09:09:53;;;;;;;11.95;7.53;;;5.10;99.90;;;;;;5031888;28;20261;-77
2021/01/31 09:12:22;;;;;;;11.23;7.88;;;5.20;99.90;;;;;;5031878;28;20649;-76
2021/01/31 09:14:50;;;;;;;12.00;7.97;;;5.40;99.90;;;;;;5013010;28;20203;-76
2021/01/31 09:17:23;;;;;;;10.35;6.72;;;5.30;99.90;;;;;;5026487;28;20215;-75
2021/01/31 09:20:04;;;;;;;10.60;6.50;;;5.50;99.90;;;;;;5014398;28;20235;-79
2021/01/31 09:22:32;;;;;;;9.80;6.60;;;5.40;99.90;;;;;;5027610;28;20227;-79
2021/01/31 09:25:01;;;;;;;10.60;6.43;;;5.20;99.90;;;;;;5034164;28;20768;-79
2021/01/31 09:27:29;;;;;;;14.02;7.63;;;5.30;99.90;;;;;;5033939;28;20210;-80
2021/01/31 09:29:58;;;;;;;10.85;6.53;;;5.20;99.90;;;;;;5034582;28;20211;-80
2021/01/31 09:32:27;;;;;;;10.80;7.53;;;5.50;99.90;;;;;;5049825;28;20222;-80
2021/01/31 09:34:55;;;;;;;10.93;6.95;;;5.30;99.90;;;;;;5036837;28;20215;-75
2021/01/31 09:37:24;;;;;;;10.23;7.10;;;5.50;99.90;;;;;;5035651;28;20227;-79
2021/01/31 09:39:53;;;;;;;9.95;7.63;;;5.40;99.90;;;;;;5034370;28;20201;-79
2021/01/31 09:42:20;;;;;;;11.80;8.25;;;5.40;99.90;;;;;;5034666;28;20235;-81
2021/01/31 09:44:51;;;;;;;11.07;7.85;;;5.60;99.90;;;;;;5034976;28;20235;-80
2021/01/31 09:47:21;;;;;;;9.57;6.55;;;5.50;99.90;;;;;;5034342;28;20276;-79
2021/01/31 09:49:52;;;;;;;10.77;8.15;;;5.40;99.90;;;;;;5033274;28;20231;-76
2021/01/31 09:52:19;;;;;;;12.23;8.30;;;5.30;99.90;;;;;;5035947;28;20226;-79
2021/01/31 09:54:46;;;;;;;11.93;8.55;;;5.40;99.90;;;;;;5032606;28;20230;-79
2021/01/31 09:57:21;;;;;;;12.50;9.20;;;5.50;99.90;;;;;;5033944;28;20199;-79
2021/01/31 09:59:49;;;;;;;14.23;8.65;;;5.30;99.90;;;;;;5021411;28;20253;-78
2021/01/31 10:02:19;;;;;;;11.20;7.05;;;5.60;99.90;;;;;;5017249;28;20215;-78
2021/01/31 10:04:54;;;;;;;12.10;7.80;;;5.70;99.90;;;;;;5036606;28;20230;-78
2021/01/31 10:07:31;;;;;;;15.98;9.50;;;5.40;99.90;;;;;;5031664;28;20218;-78
2021/01/31 10:09:58;;;;;;;12.65;8.05;;;5.60;99.90;;;;;;5030911;28;20276;-78
2021/01/31 10:12:30;;;;;;;14.77;10.05;;;5.50;99.90;;;;;;5033024;28;20234;-78
2021/01/31 10:14:58;;;;;;;12.43;8.27;;;5.40;99.90;;;;;;5033650;28;20269;-77
2021/01/31 10:17:40;;;;;;;17.83;11.25;;;5.60;99.90;;;;;;5023368;28;20243;-78
2021/01/31 10:20:28;;;;;;;12.18;9.30;;;5.50;99.90;;;;;;5031249;28;20294;-78
2021/01/31 10:22:57;;;;;;;13.07;9.43;;;5.60;99.90;;;;;;5032649;28;20560;-78
2021/01/31 10:25:24;;;;;;;10.98;8.23;;;5.70;99.90;;;;;;5033154;28;20223;-78
2021/01/31 10:27:51;;;;;;;12.52;8.55;;;5.60;99.90;;;;;;5031532;28;20203;-77
2021/01/31 10:30:22;;;;;;;13.02;9.35;;;5.80;99.90;;;;;;5030387;28;20203;-78
2021/01/31 10:32:48;;;;;;;11.73;9.20;;;5.70;99.90;;;;;;5019059;28;20350;-78
2021/01/31 10:35:30;;;;;;;11.50;8.77;;;5.70;99.90;;;;;;5030401;28;20200;-78
2021/01/31 10:37:59;;;;;;;10.52;8.05;;;5.90;99.90;;;;;;5030247;28;20211;-78
2021/01/31 10:40:25;;;;;;;12.88;8.48;;;5.80;99.90;;;;;;5031469;28;20235;-80
2021/01/31 10:42:52;;;;;;;13.00;8.57;;;5.90;99.90;;;;;;5033534;28;20231;-80
2021/01/31 10:45:21;;;;;;;11.95;9.35;;;5.90;99.90;;;;;;5037529;28;20662;-78
2021/01/31 10:47:47;;;;;;;15.52;10.27;;;5.90;99.90;;;;;;5033458;28;20223;-79
2021/01/31 10:50:16;;;;;;;13.70;9.20;;;6.20;99.90;;;;;;5033725;28;20207;-79
2021/01/31 10:52:43;;;;;;;12.82;9.52;;;6.40;99.90;;;;;;5034298;28;20705;-79
2021/01/31 10:55:11;;;;;;;13.82;8.45;;;6.50;99.90;;;;;;5034504;28;20238;-80
2021/01/31 10:57:37;;;;;;;12.15;8.40;;;6.30;99.90;;;;;;5018456;28;20207;-78
2021/01/31 11:00:07;;;;;;;12.15;7.95;;;6.40;99.90;;;;;;5031361;28;20905;-78
2021/01/31 11:02:33;;;;;;;15.15;9.75;;;6.40;99.90;;;;;;5032278;28;20261;-79
2021/01/31 11:05:00;;;;;;;13.07;9.50;;;6.30;99.90;;;;;;5020796;28;20607;-77
2021/01/31 11:07:26;;;;;;;14.00;9.77;;;6.20;99.90;;;;;;5032088;28;20214;-78
2021/01/31 11:09:53;;;;;;;12.75;7.95;;;6.40;99.90;;;;;;5031828;28;20290;-79
2021/01/31 11:12:20;;;;;;;13.98;9.40;;;6.10;99.90;;;;;;5027704;28;20219;-79
2021/01/31 11:14:47;;;;;;;14.82;10.13;;;6.10;99.90;;;;;;5032634;28;20207;-78
2021/01/31 11:17:13;;;;;;;16.33;9.50;;;5.90;99.90;;;;;;5030496;28;20261;-79
2021/01/31 11:19:40;;;;;;;13.52;10.00;;;6.10;99.90;;;;;;5032760;28;20268;-78
2021/01/31 11:22:06;;;;;;;12.40;8.57;;;6.30;99.90;;;;;;5036033;28;20300;-80
2021/01/31 11:24:32;;;;;;;13.95;9.45;;;6.30;99.90;;;;;;5034544;28;20223;-79
2021/01/31 11:27:00;;;;;;;14.35;9.80;;;6.20;99.90;;;;;;5034321;28;20203;-79
2021/01/31 11:29:27;;;;;;;14.60;9.70;;;6.10;99.90;;;;;;5032923;28;20207;-79
2021/01/31 11:31:53;;;;;;;11.85;8.45;;;6.10;99.90;;;;;;5047446;28;20324;-79
2021/01/31 11:34:20;;;;;;;12.18;8.45;;;6.30;99.90;;;;;;5040789;28;20209;-80
2021/01/31 11:36:46;;;;;;;12.00;8.20;;;6.40;99.90;;;;;;5033192;28;20203;-79
2021/01/31 11:39:13;;;;;;;12.77;9.15;;;6.30;99.90;;;;;;5037438;28;20207;-78
2021/01/31 11:41:40;;;;;;;13.77;8.10;;;6.50;99.90;;;;;;5032596;28;20328;-79
2021/01/31 11:44:08;;;;;;;13.32;7.30;;;6.60;99.90;;;;;;5034473;28;20227;-80
2021/01/31 11:46:35;;;;;;;12.63;8.68;;;6.50;99.90;;;;;;5024990;28;20223;-80
2021/01/31 11:49:03;;;;;;;11.40;7.07;;;6.60;99.90;;;;;;5038345;28;20233;-76
2021/01/31 11:51:29;;;;;;;11.60;8.70;;;6.60;99.90;;;;;;5037036;28;20265;-78
2021/01/31 11:53:56;;;;;;;12.95;9.18;;;6.40;99.90;;;;;;5036122;28;20207;-78
2021/01/31 11:56:23;;;;;;;11.30;8.20;;;6.60;99.90;;;;;;5034867;28;20300;-77
2021/01/31 11:58:49;;;;;;;11.55;8.15;;;6.40;99.90;;;;;;5035797;28;20287;-78
2021/01/31 12:01:16;;;;;;;10.82;7.97;;;6.40;99.90;;;;;;5035815;28;20233;-78
2021/01/31 12:03:44;;;;;;;11.15;8.35;;;6.40;99.90;;;;;;5034753;28;20217;-74
2021/01/31 12:06:11;;;;;;;12.30;7.90;;;6.50;99.90;;;;;;5032762;28;20892;-74
2021/01/31 12:08:38;;;;;;;11.88;8.60;;;6.50;99.90;;;;;;5032437;28;20647;-76
2021/01/31 12:11:04;;;;;;;10.98;7.60;;;6.30;99.90;;;;;;5034081;28;20212;-75
2021/01/31 12:13:31;;;;;;;11.20;9.02;;;6.70;99.90;;;;;;5034270;28;20213;-76
2021/01/31 12:15:58;;;;;;;11.10;8.27;;;6.50;99.90;;;;;;5034247;28;20205;-75
2021/01/31 12:18:24;;;;;;;13.65;9.35;;;6.70;99.90;;;;;;5032543;28;20227;-75
2021/01/31 12:20:52;;;;;;;11.60;8.50;;;6.70;99.90;;;;;;5035292;28;20262;-75
2021/01/31 12:23:19;;;;;;;11.68;7.72;;;7.00;99.90;;;;;;5031251;28;20608;-76
2021/01/31 12:25:45;;;;;;;12.07;9.05;;;6.90;99.90;;;;;;5033441;28;20707;-75
2021/01/31 12:28:12;;;;;;;10.70;7.72;;;6.70;99.90;;;;;;5031564;28;20215;-76
2021/01/31 12:30:39;;;;;;;12.95;7.95;;;6.90;99.90;;;;;;5033152;28;20229;-76
2021/01/31 12:33:05;;;;;;;12.32;8.52;;;6.80;99.90;;;;;;5031539;28;20223;-76
2021/01/31 12:35:32;;;;;;;13.60;8.57;;;6.80;99.90;;;;;;5032388;28;20203;-76
2021/01/31 12:37:59;;;;;;;13.20;9.45;;;6.60;99.90;;;;;;5031433;28;20202;-76
2021/01/31 12:40:29;;;;;;;13.52;9.57;;;6.70;99.90;;;;;;5032152;28;20215;-75
2021/01/31 12:42:55;;;;;;;12.65;8.85;;;6.90;99.90;;;;;;5022444;28;20233;-78
2021/01/31 12:45:23;;;;;;;11.82;8.43;;;7.10;99.90;;;;;;5033196;28;20227;-81
2021/01/31 12:47:49;;;;;;;10.35;7.97;;;7.10;99.90;;;;;;5032798;28;20211;-75
2021/01/31 12:50:18;;;;;;;11.20;8.63;;;7.00;99.90;;;;;;5032534;28;20275;-81
2021/01/31 12:52:44;;;;;;;12.75;9.00;;;7.00;99.90;;;;;;5032866;28;20241;-78
2021/01/31 12:55:13;;;;;;;12.00;9.20;;;7.20;99.90;;;;;;5031810;28;20203;-77
2021/01/31 12:57:39;;;;;;;10.93;7.60;;;7.40;99.90;;;;;;5032346;28;20310;-76
2021/01/31 13:00:08;;;;;;;10.60;8.27;;;7.10;99.90;;;;;;5032221;28;20310;-75
2021/01/31 13:02:35;;;;;;;11.65;9.02;;;7.30;99.90;;;;;;5032865;28;20250;-81
2021/01/31 13:05:01;;;;;;;14.32;10.30;;;7.00;99.90;;;;;;5033589;28;20235;-77
2021/01/31 13:07:27;;;;;;;11.57;8.10;;;7.20;99.90;;;;;;5031792;28;20215;-79
2021/01/31 13:09:54;;;;;;;11.45;8.50;;;7.00;99.90;;;;;;5033040;28;20254;-80